sensor_id;sensor_type;location;lat;lon;timestamp;P1;durP1;ratioP1;P2;durP2;ratioP2
21386;SDS011;10854;45.922;6.716;2022-07-06T00:01:47;2.33;;;1.57;;
21386;SDS011;10854;45.922;6.716;2022-07-06T00:04:18;2.93;;;1.70;;
21386;SDS011;10854;45.922;6.716;2022-07-06T00:06:47;3.73;;;1.80;;
21386;SDS011;10854;45.922;6.716;2022-07-06T00:09:16;8.53;;;2.40;;
21386;SDS011;10854;45.922;6.716;2022-07-06T00:11:44;2.73;;;1.70;;
21386;SDS011;10854;45.922;6.716;2022-07-06T00:14:13;2.67;;;1.60;;
21386;SDS011;10854;45.922;6.716;2022-07-06T00:16:42;5.80;;;1.70;;
21386;SDS011;10854;45.922;6.716;2022-07-06T00:19:10;3.20;;;1.70;;
21386;SDS011;10854;45.922;6.716;2022-07-06T00:21:39;4.60;;;2.13;;
21386;SDS011;10854;45.922;6.716;2022-07-06T00:24:07;3.83;;;1.87;;
21386;SDS011;10854;45.922;6.716;2022-07-06T00:26:36;1.93;;;1.60;;
21386;SDS011;10854;45.922;6.716;2022-07-06T00:29:04;2.27;;;2.07;;
21386;SDS011;10854;45.922;6.716;2022-07-06T00:31:33;3.57;;;1.70;;
21386;SDS011;10854;45.922;6.716;2022-07-06T00:34:02;3.50;;;1.90;;
21386;SDS011;10854;45.922;6.716;2022-07-06T00:36:32;2.47;;;1.67;;
21386;SDS011;10854;45.922;6.716;2022-07-06T00:39:00;3.60;;;1.87;;
21386;SDS011;10854;45.922;6.716;2022-07-06T00:41:30;3.03;;;1.90;;
21386;SDS011;10854;45.922;6.716;2022-07-06T00:43:58;4.17;;;1.93;;
21386;SDS011;10854;45.922;6.716;2022-07-06T00:46:30;3.73;;;1.83;;
21386;SDS011;10854;45.922;6.716;2022-07-06T00:49:00;2.13;;;1.67;;
21386;SDS011;10854;45.922;6.716;2022-07-06T00:51:30;5.20;;;1.70;;
21386;SDS011;10854;45.922;6.716;2022-07-06T00:54:04;4.40;;;2.00;;
21386;SDS011;10854;45.922;6.716;2022-07-06T00:56:34;2.47;;;1.93;;
21386;SDS011;10854;45.922;6.716;2022-07-06T00:59:03;3.23;;;1.80;;
21386;SDS011;10854;45.922;6.716;2022-07-06T01:01:32;3.77;;;2.27;;
21386;SDS011;10854;45.922;6.716;2022-07-06T01:04:00;5.10;;;2.40;;
21386;SDS011;10854;45.922;6.716;2022-07-06T01:06:30;3.87;;;1.97;;
21386;SDS011;10854;45.922;6.716;2022-07-06T01:09:00;5.87;;;2.00;;
21386;SDS011;10854;45.922;6.716;2022-07-06T01:11:29;3.43;;;1.77;;
21386;SDS011;10854;45.922;6.716;2022-07-06T01:14:00;4.70;;;1.87;;
21386;SDS011;10854;45.922;6.716;2022-07-06T01:16:29;2.10;;;1.70;;
21386;SDS011;10854;45.922;6.716;2022-07-06T01:18:59;2.27;;;2.07;;
21386;SDS011;10854;45.922;6.716;2022-07-06T01:21:28;3.07;;;2.00;;
21386;SDS011;10854;45.922;6.716;2022-07-06T01:23:56;3.67;;;2.10;;
21386;SDS011;10854;45.922;6.716;2022-07-06T01:26:25;7.33;;;2.03;;
21386;SDS011;10854;45.922;6.716;2022-07-06T01:28:53;2.17;;;1.87;;
21386;SDS011;10854;45.922;6.716;2022-07-06T01:31:23;2.37;;;1.90;;
21386;SDS011;10854;45.922;6.716;2022-07-06T01:33:54;3.47;;;1.83;;
21386;SDS011;10854;45.922;6.716;2022-07-06T01:36:23;2.23;;;2.03;;
21386;SDS011;10854;45.922;6.716;2022-07-06T01:38:53;3.37;;;1.90;;
21386;SDS011;10854;45.922;6.716;2022-07-06T01:41:25;2.30;;;1.83;;
21386;SDS011;10854;45.922;6.716;2022-07-06T01:43:54;3.57;;;2.00;;
21386;SDS011;10854;45.922;6.716;2022-07-06T01:46:22;3.20;;;1.80;;
21386;SDS011;10854;45.922;6.716;2022-07-06T01:48:51;3.20;;;1.77;;
21386;SDS011;10854;45.922;6.716;2022-07-06T01:51:19;3.80;;;1.67;;
21386;SDS011;10854;45.922;6.716;2022-07-06T01:53:48;4.17;;;2.17;;
21386;SDS011;10854;45.922;6.716;2022-07-06T01:56:17;2.77;;;2.00;;
21386;SDS011;10854;45.922;6.716;2022-07-06T01:58:46;2.30;;;1.90;;
21386;SDS011;10854;45.922;6.716;2022-07-06T02:01:16;2.83;;;2.07;;
21386;SDS011;10854;45.922;6.716;2022-07-06T02:03:47;2.43;;;1.97;;
21386;SDS011;10854;45.922;6.716;2022-07-06T02:06:15;5.10;;;2.43;;
21386;SDS011;10854;45.922;6.716;2022-07-06T02:08:44;3.83;;;2.23;;
21386;SDS011;10854;45.922;6.716;2022-07-06T02:11:13;5.97;;;2.10;;
21386;SDS011;10854;45.922;6.716;2022-07-06T02:13:41;2.83;;;2.10;;
21386;SDS011;10854;45.922;6.716;2022-07-06T02:16:10;5.13;;;2.50;;
21386;SDS011;10854;45.922;6.716;2022-07-06T02:18:38;4.80;;;1.80;;
21386;SDS011;10854;45.922;6.716;2022-07-06T02:21:07;3.30;;;2.20;;
21386;SDS011;10854;45.922;6.716;2022-07-06T02:23:37;4.27;;;2.40;;
21386;SDS011;10854;45.922;6.716;2022-07-06T02:26:05;5.17;;;2.10;;
21386;SDS011;10854;45.922;6.716;2022-07-06T02:28:34;3.30;;;2.20;;
21386;SDS011;10854;45.922;6.716;2022-07-06T02:31:02;3.93;;;2.30;;
21386;SDS011;10854;45.922;6.716;2022-07-06T02:33:31;5.07;;;2.37;;
21386;SDS011;10854;45.922;6.716;2022-07-06T02:36:01;7.83;;;2.10;;
21386;SDS011;10854;45.922;6.716;2022-07-06T02:38:30;2.37;;;1.93;;
21386;SDS011;10854;45.922;6.716;2022-07-06T02:41:00;3.50;;;2.27;;
21386;SDS011;10854;45.922;6.716;2022-07-06T02:43:28;2.97;;;2.13;;
21386;SDS011;10854;45.922;6.716;2022-07-06T02:45:58;3.83;;;2.27;;
21386;SDS011;10854;45.922;6.716;2022-07-06T02:48:27;5.23;;;2.30;;
21386;SDS011;10854;45.922;6.716;2022-07-06T02:50:55;5.63;;;2.10;;
21386;SDS011;10854;45.922;6.716;2022-07-06T02:53:24;2.83;;;2.20;;
21386;SDS011;10854;45.922;6.716;2022-07-06T02:55:52;3.70;;;2.10;;
21386;SDS011;10854;45.922;6.716;2022-07-06T02:58:21;2.73;;;2.20;;
21386;SDS011;10854;45.922;6.716;2022-07-06T03:00:49;3.83;;;2.03;;
21386;SDS011;10854;45.922;6.716;2022-07-06T03:03:18;3.93;;;2.37;;
21386;SDS011;10854;45.922;6.716;2022-07-06T03:05:49;4.63;;;2.50;;
21386;SDS011;10854;45.922;6.716;2022-07-06T03:08:18;4.73;;;2.40;;
21386;SDS011;10854;45.922;6.716;2022-07-06T03:10:46;3.80;;;2.10;;
21386;SDS011;10854;45.922;6.716;2022-07-06T03:13:15;6.00;;;2.40;;
21386;SDS011;10854;45.922;6.716;2022-07-06T03:15:43;3.37;;;2.30;;
21386;SDS011;10854;45.922;6.716;2022-07-06T03:18:12;5.20;;;2.50;;
21386;SDS011;10854;45.922;6.716;2022-07-06T03:20:42;3.40;;;2.30;;
21386;SDS011;10854;45.922;6.716;2022-07-06T03:23:11;5.07;;;2.53;;
21386;SDS011;10854;45.922;6.716;2022-07-06T03:25:40;4.27;;;2.40;;
21386;SDS011;10854;45.922;6.716;2022-07-06T03:28:08;3.90;;;2.30;;
21386;SDS011;10854;45.922;6.716;2022-07-06T03:30:37;6.53;;;2.37;;
21386;SDS011;10854;45.922;6.716;2022-07-06T03:33:07;6.67;;;2.47;;
21386;SDS011;10854;45.922;6.716;2022-07-06T03:35:35;2.97;;;2.27;;
21386;SDS011;10854;45.922;6.716;2022-07-06T03:38:04;3.33;;;2.67;;
21386;SDS011;10854;45.922;6.716;2022-07-06T03:40:36;5.37;;;2.67;;
21386;SDS011;10854;45.922;6.716;2022-07-06T03:43:04;6.17;;;2.50;;
21386;SDS011;10854;45.922;6.716;2022-07-06T03:45:33;6.77;;;2.60;;
21386;SDS011;10854;45.922;6.716;2022-07-06T03:48:01;4.13;;;2.80;;
21386;SDS011;10854;45.922;6.716;2022-07-06T03:50:30;5.57;;;2.83;;
21386;SDS011;10854;45.922;6.716;2022-07-06T03:52:59;3.17;;;2.40;;
21386;SDS011;10854;45.922;6.716;2022-07-06T03:55:27;6.70;;;3.10;;
21386;SDS011;10854;45.922;6.716;2022-07-06T03:57:56;3.60;;;2.57;;
21386;SDS011;10854;45.922;6.716;2022-07-06T04:00:27;3.47;;;2.70;;
21386;SDS011;10854;45.922;6.716;2022-07-06T04:02:55;4.33;;;2.60;;
21386;SDS011;10854;45.922;6.716;2022-07-06T04:05:24;7.57;;;2.60;;
21386;SDS011;10854;45.922;6.716;2022-07-06T04:07:53;4.40;;;2.70;;
21386;SDS011;10854;45.922;6.716;2022-07-06T04:10:21;7.50;;;2.73;;
21386;SDS011;10854;45.922;6.716;2022-07-06T04:12:50;6.10;;;2.70;;
21386;SDS011;10854;45.922;6.716;2022-07-06T04:15:18;3.10;;;2.50;;
21386;SDS011;10854;45.922;6.716;2022-07-06T04:17:47;11.13;;;3.00;;
21386;SDS011;10854;45.922;6.716;2022-07-06T04:20:22;4.30;;;2.63;;
21386;SDS011;10854;45.922;6.716;2022-07-06T04:22:55;3.43;;;2.80;;
21386;SDS011;10854;45.922;6.716;2022-07-06T04:25:23;3.40;;;2.77;;
21386;SDS011;10854;45.922;6.716;2022-07-06T04:27:52;4.80;;;2.70;;
21386;SDS011;10854;45.922;6.716;2022-07-06T04:30:21;4.07;;;2.50;;
21386;SDS011;10854;45.922;6.716;2022-07-06T04:32:49;4.07;;;2.80;;
21386;SDS011;10854;45.922;6.716;2022-07-06T04:35:18;7.97;;;2.77;;
21386;SDS011;10854;45.922;6.716;2022-07-06T04:37:46;4.70;;;2.57;;
21386;SDS011;10854;45.922;6.716;2022-07-06T04:40:15;5.43;;;2.60;;
21386;SDS011;10854;45.922;6.716;2022-07-06T04:42:44;5.70;;;2.67;;
21386;SDS011;10854;45.922;6.716;2022-07-06T04:45:13;3.57;;;2.63;;
21386;SDS011;10854;45.922;6.716;2022-07-06T04:47:42;3.87;;;2.77;;
21386;SDS011;10854;45.922;6.716;2022-07-06T04:50:11;4.87;;;2.80;;
21386;SDS011;10854;45.922;6.716;2022-07-06T04:52:40;2.87;;;2.57;;
21386;SDS011;10854;45.922;6.716;2022-07-06T04:55:09;4.27;;;2.40;;
21386;SDS011;10854;45.922;6.716;2022-07-06T04:57:38;6.43;;;2.40;;
21386;SDS011;10854;45.922;6.716;2022-07-06T05:00:06;5.07;;;2.67;;
21386;SDS011;10854;45.922;6.716;2022-07-06T05:02:35;4.43;;;2.90;;
21386;SDS011;10854;45.922;6.716;2022-07-06T05:05:04;5.27;;;2.87;;
21386;SDS011;10854;45.922;6.716;2022-07-06T05:07:33;7.07;;;2.70;;
21386;SDS011;10854;45.922;6.716;2022-07-06T05:10:07;4.77;;;2.63;;
21386;SDS011;10854;45.922;6.716;2022-07-06T05:12:37;3.20;;;2.50;;
21386;SDS011;10854;45.922;6.716;2022-07-06T05:15:06;4.73;;;2.80;;
21386;SDS011;10854;45.922;6.716;2022-07-06T05:17:35;3.07;;;2.13;;
21386;SDS011;10854;45.922;6.716;2022-07-06T05:20:05;4.77;;;2.50;;
21386;SDS011;10854;45.922;6.716;2022-07-06T05:22:34;2.77;;;1.87;;
21386;SDS011;10854;45.922;6.716;2022-07-06T05:25:05;3.47;;;2.10;;
21386;SDS011;10854;45.922;6.716;2022-07-06T05:27:33;3.27;;;1.70;;
21386;SDS011;10854;45.922;6.716;2022-07-06T05:30:02;3.63;;;2.00;;
21386;SDS011;10854;45.922;6.716;2022-07-06T05:32:31;4.93;;;2.27;;
21386;SDS011;10854;45.922;6.716;2022-07-06T05:34:59;7.53;;;2.13;;
21386;SDS011;10854;45.922;6.716;2022-07-06T05:37:45;7.83;;;2.50;;
21386;SDS011;10854;45.922;6.716;2022-07-06T05:40:14;7.03;;;2.00;;
21386;SDS011;10854;45.922;6.716;2022-07-06T05:42:42;3.97;;;2.07;;
21386;SDS011;10854;45.922;6.716;2022-07-06T05:45:12;4.80;;;2.30;;
21386;SDS011;10854;45.922;6.716;2022-07-06T05:47:42;8.10;;;2.17;;
21386;SDS011;10854;45.922;6.716;2022-07-06T05:50:28;5.30;;;2.07;;
21386;SDS011;10854;45.922;6.716;2022-07-06T05:52:59;4.47;;;2.40;;
21386;SDS011;10854;45.922;6.716;2022-07-06T05:55:36;5.30;;;2.10;;
21386;SDS011;10854;45.922;6.716;2022-07-06T05:58:06;8.03;;;3.23;;
21386;SDS011;10854;45.922;6.716;2022-07-06T06:00:34;6.75;;;2.30;;
21386;SDS011;10854;45.922;6.716;2022-07-06T06:03:04;6.53;;;2.50;;
21386;SDS011;10854;45.922;6.716;2022-07-06T06:05:33;6.83;;;2.43;;
21386;SDS011;10854;45.922;6.716;2022-07-06T06:08:02;8.47;;;2.60;;
21386;SDS011;10854;45.922;6.716;2022-07-06T06:10:31;7.65;;;2.72;;
21386;SDS011;10854;45.922;6.716;2022-07-06T06:13:00;6.15;;;2.40;;
21386;SDS011;10854;45.922;6.716;2022-07-06T06:15:28;2.63;;;1.90;;
21386;SDS011;10854;45.922;6.716;2022-07-06T06:17:57;4.07;;;1.95;;
21386;SDS011;10854;45.922;6.716;2022-07-06T06:20:25;8.35;;;2.00;;
21386;SDS011;10854;45.922;6.716;2022-07-06T06:22:55;3.58;;;1.70;;
21386;SDS011;10854;45.922;6.716;2022-07-06T06:25:35;5.65;;;1.70;;
21386;SDS011;10854;45.922;6.716;2022-07-06T06:28:06;2.90;;;1.60;;
21386;SDS011;10854;45.922;6.716;2022-07-06T06:30:36;5.30;;;1.80;;
21386;SDS011;10854;45.922;6.716;2022-07-06T06:33:13;5.40;;;1.88;;
21386;SDS011;10854;45.922;6.716;2022-07-06T06:35:49;4.47;;;1.83;;
21386;SDS011;10854;45.922;6.716;2022-07-06T06:38:20;4.47;;;1.80;;
21386;SDS011;10854;45.922;6.716;2022-07-06T06:40:50;4.07;;;2.15;;
21386;SDS011;10854;45.922;6.716;2022-07-06T06:43:20;1.95;;;1.75;;
21386;SDS011;10854;45.922;6.716;2022-07-06T06:45:48;5.43;;;1.90;;
21386;SDS011;10854;45.922;6.716;2022-07-06T06:48:17;2.50;;;1.73;;
21386;SDS011;10854;45.922;6.716;2022-07-06T06:50:49;4.53;;;1.70;;
21386;SDS011;10854;45.922;6.716;2022-07-06T06:53:19;3.75;;;1.80;;
21386;SDS011;10854;45.922;6.716;2022-07-06T06:55:50;3.50;;;2.00;;
21386;SDS011;10854;45.922;6.716;2022-07-06T06:58:19;6.63;;;1.80;;
21386;SDS011;10854;45.922;6.716;2022-07-06T07:00:47;5.00;;;2.00;;
21386;SDS011;10854;45.922;6.716;2022-07-06T07:03:17;1.98;;;1.77;;
21386;SDS011;10854;45.922;6.716;2022-07-06T07:05:46;3.75;;;1.90;;
21386;SDS011;10854;45.922;6.716;2022-07-06T07:08:18;6.88;;;1.80;;
21386;SDS011;10854;45.922;6.716;2022-07-06T07:10:48;4.38;;;1.85;;
21386;SDS011;10854;45.922;6.716;2022-07-06T07:13:17;1.90;;;1.70;;
21386;SDS011;10854;45.922;6.716;2022-07-06T07:15:46;4.70;;;2.03;;
21386;SDS011;10854;45.922;6.716;2022-07-06T07:18:15;5.68;;;2.10;;
21386;SDS011;10854;45.922;6.716;2022-07-06T07:20:43;11.13;;;2.40;;
21386;SDS011;10854;45.922;6.716;2022-07-06T07:23:12;3.40;;;2.20;;
21386;SDS011;10854;45.922;6.716;2022-07-06T07:25:42;3.92;;;1.83;;
21386;SDS011;10854;45.922;6.716;2022-07-06T07:28:10;3.90;;;1.80;;
21386;SDS011;10854;45.922;6.716;2022-07-06T07:30:39;4.38;;;1.90;;
21386;SDS011;10854;45.922;6.716;2022-07-06T07:33:08;6.50;;;1.83;;
21386;SDS011;10854;45.922;6.716;2022-07-06T07:35:36;4.57;;;1.60;;
21386;SDS011;10854;45.922;6.716;2022-07-06T07:38:06;2.08;;;1.80;;
21386;SDS011;10854;45.922;6.716;2022-07-06T07:40:34;2.55;;;1.70;;
21386;SDS011;10854;45.922;6.716;2022-07-06T07:43:03;2.92;;;1.77;;
21386;SDS011;10854;45.922;6.716;2022-07-06T07:45:31;5.03;;;2.00;;
21386;SDS011;10854;45.922;6.716;2022-07-06T07:48:00;3.28;;;2.00;;
21386;SDS011;10854;45.922;6.716;2022-07-06T07:50:28;3.65;;;1.67;;
21386;SDS011;10854;45.922;6.716;2022-07-06T07:52:57;4.05;;;1.83;;
21386;SDS011;10854;45.922;6.716;2022-07-06T07:55:25;4.18;;;1.67;;
21386;SDS011;10854;45.922;6.716;2022-07-06T07:58:09;3.13;;;1.60;;
21386;SDS011;10854;45.922;6.716;2022-07-06T08:00:38;5.18;;;1.90;;
21386;SDS011;10854;45.922;6.716;2022-07-06T08:03:06;3.53;;;1.65;;
21386;SDS011;10854;45.922;6.716;2022-07-06T08:05:37;6.80;;;1.77;;
21386;SDS011;10854;45.922;6.716;2022-07-06T08:08:06;3.15;;;1.90;;
21386;SDS011;10854;45.922;6.716;2022-07-06T08:10:34;5.28;;;1.83;;
21386;SDS011;10854;45.922;6.716;2022-07-06T08:13:18;5.90;;;1.75;;
21386;SDS011;10854;45.922;6.716;2022-07-06T08:15:46;5.00;;;1.45;;
21386;SDS011;10854;45.922;6.716;2022-07-06T08:18:17;2.60;;;1.65;;
21386;SDS011;10854;45.922;6.716;2022-07-06T08:20:48;5.53;;;1.90;;
21386;SDS011;10854;45.922;6.716;2022-07-06T08:23:31;4.35;;;1.95;;
21386;SDS011;10854;45.922;6.716;2022-07-06T08:26:03;5.20;;;1.83;;
21386;SDS011;10854;45.922;6.716;2022-07-06T08:28:31;3.45;;;1.88;;
21386;SDS011;10854;45.922;6.716;2022-07-06T08:31:00;5.55;;;1.70;;
21386;SDS011;10854;45.922;6.716;2022-07-06T08:33:29;4.68;;;1.63;;
21386;SDS011;10854;45.922;6.716;2022-07-06T08:35:57;2.75;;;1.60;;
21386;SDS011;10854;45.922;6.716;2022-07-06T08:38:27;6.45;;;1.75;;
21386;SDS011;10854;45.922;6.716;2022-07-06T08:40:58;4.03;;;1.90;;
21386;SDS011;10854;45.922;6.716;2022-07-06T08:43:27;5.88;;;1.70;;
21386;SDS011;10854;45.922;6.716;2022-07-06T08:45:55;3.10;;;1.60;;
21386;SDS011;10854;45.922;6.716;2022-07-06T08:48:26;3.47;;;1.90;;
21386;SDS011;10854;45.922;6.716;2022-07-06T08:51:00;3.38;;;1.50;;
21386;SDS011;10854;45.922;6.716;2022-07-06T08:53:29;9.40;;;1.80;;
21386;SDS011;10854;45.922;6.716;2022-07-06T08:55:57;3.10;;;1.67;;
21386;SDS011;10854;45.922;6.716;2022-07-06T08:58:26;4.40;;;1.40;;
21386;SDS011;10854;45.922;6.716;2022-07-06T09:00:57;2.67;;;1.50;;
21386;SDS011;10854;45.922;6.716;2022-07-06T09:03:28;2.75;;;1.60;;
21386;SDS011;10854;45.922;6.716;2022-07-06T09:05:58;4.18;;;1.80;;
21386;SDS011;10854;45.922;6.716;2022-07-06T09:08:30;1.95;;;1.25;;
21386;SDS011;10854;45.922;6.716;2022-07-06T09:11:00;3.58;;;1.55;;
21386;SDS011;10854;45.922;6.716;2022-07-06T09:13:28;1.55;;;1.27;;
21386;SDS011;10854;45.922;6.716;2022-07-06T09:16:08;3.60;;;1.50;;
21386;SDS011;10854;45.922;6.716;2022-07-06T09:18:59;3.70;;;1.30;;
21386;SDS011;10854;45.922;6.716;2022-07-06T09:21:32;1.52;;;1.35;;
21386;SDS011;10854;45.922;6.716;2022-07-06T09:24:09;2.78;;;1.42;;
21386;SDS011;10854;45.922;6.716;2022-07-06T09:26:39;3.55;;;1.52;;
21386;SDS011;10854;45.922;6.716;2022-07-06T09:29:11;2.25;;;1.10;;
21386;SDS011;10854;45.922;6.716;2022-07-06T09:31:40;3.75;;;1.30;;
21386;SDS011;10854;45.922;6.716;2022-07-06T09:34:09;3.60;;;1.20;;
21386;SDS011;10854;45.922;6.716;2022-07-06T09:36:42;3.88;;;1.63;;
21386;SDS011;10854;45.922;6.716;2022-07-06T09:41:52;4.22;;;1.40;;
21386;SDS011;10854;45.922;6.716;2022-07-06T09:44:26;4.13;;;1.55;;
21386;SDS011;10854;45.922;6.716;2022-07-06T09:46:58;2.80;;;1.50;;
21386;SDS011;10854;45.922;6.716;2022-07-06T09:49:29;2.58;;;1.58;;
21386;SDS011;10854;45.922;6.716;2022-07-06T09:52:02;2.88;;;1.55;;
21386;SDS011;10854;45.922;6.716;2022-07-06T09:54:35;2.97;;;1.45;;
21386;SDS011;10854;45.922;6.716;2022-07-06T09:57:06;1.70;;;1.52;;
21386;SDS011;10854;45.922;6.716;2022-07-06T09:59:36;4.35;;;1.70;;
21386;SDS011;10854;45.922;6.716;2022-07-06T10:02:06;5.70;;;1.55;;
21386;SDS011;10854;45.922;6.716;2022-07-06T10:04:35;4.88;;;1.40;;
21386;SDS011;10854;45.922;6.716;2022-07-06T10:07:04;5.25;;;1.55;;
21386;SDS011;10854;45.922;6.716;2022-07-06T10:09:36;3.72;;;1.42;;
21386;SDS011;10854;45.922;6.716;2022-07-06T10:12:05;3.60;;;1.52;;
21386;SDS011;10854;45.922;6.716;2022-07-06T10:14:40;5.50;;;1.40;;
21386;SDS011;10854;45.922;6.716;2022-07-06T10:17:12;4.13;;;1.80;;
21386;SDS011;10854;45.922;6.716;2022-07-06T10:19:42;3.25;;;1.30;;
21386;SDS011;10854;45.922;6.716;2022-07-06T10:22:15;1.60;;;1.40;;
21386;SDS011;10854;45.922;6.716;2022-07-06T10:24:45;2.55;;;1.60;;
21386;SDS011;10854;45.922;6.716;2022-07-06T10:27:16;3.25;;;1.50;;
21386;SDS011;10854;45.922;6.716;2022-07-06T10:29:44;2.85;;;1.45;;
21386;SDS011;10854;45.922;6.716;2022-07-06T10:32:13;2.40;;;1.30;;
21386;SDS011;10854;45.922;6.716;2022-07-06T10:34:47;3.33;;;1.48;;
21386;SDS011;10854;45.922;6.716;2022-07-06T10:37:24;3.13;;;1.40;;
21386;SDS011;10854;45.922;6.716;2022-07-06T10:39:55;2.60;;;1.45;;
21386;SDS011;10854;45.922;6.716;2022-07-06T10:42:44;1.63;;;1.48;;
21386;SDS011;10854;45.922;6.716;2022-07-06T10:45:20;2.65;;;1.40;;
21386;SDS011;10854;45.922;6.716;2022-07-06T10:48:17;2.35;;;1.40;;
21386;SDS011;10854;45.922;6.716;2022-07-06T10:50:54;5.78;;;1.50;;
21386;SDS011;10854;45.922;6.716;2022-07-06T10:53:25;2.22;;;1.30;;
21386;SDS011;10854;45.922;6.716;2022-07-06T10:56:05;5.15;;;1.42;;
21386;SDS011;10854;45.922;6.716;2022-07-06T10:58:41;2.30;;;1.55;;
21386;SDS011;10854;45.922;6.716;2022-07-06T11:01:21;2.58;;;1.50;;
21386;SDS011;10854;45.922;6.716;2022-07-06T11:06:25;2.17;;;1.27;;
21386;SDS011;10854;45.922;6.716;2022-07-06T11:08:59;5.18;;;1.52;;
21386;SDS011;10854;45.922;6.716;2022-07-06T11:14:09;2.00;;;1.40;;
21386;SDS011;10854;45.922;6.716;2022-07-06T11:19:17;2.58;;;1.50;;
21386;SDS011;10854;45.922;6.716;2022-07-06T11:21:48;3.55;;;1.48;;
21386;SDS011;10854;45.922;6.716;2022-07-06T11:24:20;3.00;;;1.10;;
21386;SDS011;10854;45.922;6.716;2022-07-06T11:26:50;1.90;;;1.38;;
21386;SDS011;10854;45.922;6.716;2022-07-06T11:29:20;2.40;;;1.30;;
21386;SDS011;10854;45.922;6.716;2022-07-06T11:31:53;3.28;;;1.10;;
21386;SDS011;10854;45.922;6.716;2022-07-06T11:34:28;2.45;;;1.48;;
21386;SDS011;10854;45.922;6.716;2022-07-06T11:36:59;6.32;;;1.45;;
21386;SDS011;10854;45.922;6.716;2022-07-06T11:39:31;2.85;;;1.40;;
21386;SDS011;10854;45.922;6.716;2022-07-06T11:42:03;5.28;;;1.40;;
21386;SDS011;10854;45.922;6.716;2022-07-06T11:44:32;2.13;;;1.20;;
21386;SDS011;10854;45.922;6.716;2022-07-06T11:47:02;5.13;;;1.40;;
21386;SDS011;10854;45.922;6.716;2022-07-06T11:49:33;1.42;;;1.10;;
21386;SDS011;10854;45.922;6.716;2022-07-06T11:52:07;1.27;;;1.17;;
21386;SDS011;10854;45.922;6.716;2022-07-06T11:54:40;2.25;;;1.30;;
21386;SDS011;10854;45.922;6.716;2022-07-06T11:57:09;1.75;;;1.25;;
21386;SDS011;10854;45.922;6.716;2022-07-06T11:59:40;4.65;;;1.30;;
21386;SDS011;10854;45.922;6.716;2022-07-06T12:02:10;3.05;;;1.33;;
21386;SDS011;10854;45.922;6.716;2022-07-06T12:04:41;1.33;;;1.13;;
21386;SDS011;10854;45.922;6.716;2022-07-06T12:07:14;4.10;;;1.55;;
21386;SDS011;10854;45.922;6.716;2022-07-06T12:09:44;4.07;;;1.55;;
21386;SDS011;10854;45.922;6.716;2022-07-06T12:12:14;2.03;;;1.30;;
21386;SDS011;10854;45.922;6.716;2022-07-06T12:14:44;2.65;;;1.30;;
21386;SDS011;10854;45.922;6.716;2022-07-06T12:17:14;3.38;;;1.30;;
21386;SDS011;10854;45.922;6.716;2022-07-06T12:19:43;2.20;;;1.10;;
21386;SDS011;10854;45.922;6.716;2022-07-06T12:22:12;4.70;;;1.50;;
21386;SDS011;10854;45.922;6.716;2022-07-06T12:24:42;1.95;;;1.38;;
21386;SDS011;10854;45.922;6.716;2022-07-06T12:27:13;4.70;;;1.30;;
21386;SDS011;10854;45.922;6.716;2022-07-06T12:29:47;3.15;;;1.48;;
21386;SDS011;10854;45.922;6.716;2022-07-06T12:32:20;3.50;;;1.27;;
21386;SDS011;10854;45.922;6.716;2022-07-06T12:35:06;3.53;;;1.50;;
21386;SDS011;10854;45.922;6.716;2022-07-06T12:37:54;2.80;;;1.30;;
21386;SDS011;10854;45.922;6.716;2022-07-06T12:40:25;3.33;;;1.40;;
21386;SDS011;10854;45.922;6.716;2022-07-06T12:42:58;2.45;;;1.48;;
21386;SDS011;10854;45.922;6.716;2022-07-06T12:45:27;1.40;;;1.08;;
21386;SDS011;10854;45.922;6.716;2022-07-06T12:48:01;3.13;;;1.30;;
21386;SDS011;10854;45.922;6.716;2022-07-06T12:50:32;2.20;;;1.23;;
21386;SDS011;10854;45.922;6.716;2022-07-06T12:53:03;1.63;;;1.20;;
21386;SDS011;10854;45.922;6.716;2022-07-06T12:55:33;3.25;;;1.45;;
21386;SDS011;10854;45.922;6.716;2022-07-06T12:58:01;2.42;;;1.10;;
21386;SDS011;10854;45.922;6.716;2022-07-06T13:00:40;3.30;;;1.30;;
21386;SDS011;10854;45.922;6.716;2022-07-06T13:03:13;2.67;;;1.15;;
21386;SDS011;10854;45.922;6.716;2022-07-06T13:05:48;1.55;;;1.25;;
21386;SDS011;10854;45.922;6.716;2022-07-06T13:08:17;3.88;;;1.45;;
21386;SDS011;10854;45.922;6.716;2022-07-06T13:10:46;2.28;;;1.10;;
21386;SDS011;10854;45.922;6.716;2022-07-06T13:13:15;1.45;;;1.20;;
21386;SDS011;10854;45.922;6.716;2022-07-06T13:15:43;2.13;;;1.20;;
21386;SDS011;10854;45.922;6.716;2022-07-06T13:18:12;1.30;;;1.00;;
21386;SDS011;10854;45.922;6.716;2022-07-06T13:20:40;1.40;;;1.30;;
21386;SDS011;10854;45.922;6.716;2022-07-06T13:23:10;3.40;;;1.40;;
21386;SDS011;10854;45.922;6.716;2022-07-06T13:25:39;4.55;;;1.20;;
21386;SDS011;10854;45.922;6.716;2022-07-06T13:28:08;2.85;;;1.20;;
21386;SDS011;10854;45.922;6.716;2022-07-06T13:30:36;2.63;;;1.17;;
21386;SDS011;10854;45.922;6.716;2022-07-06T13:33:05;3.08;;;1.30;;
21386;SDS011;10854;45.922;6.716;2022-07-06T13:35:34;4.25;;;1.40;;
21386;SDS011;10854;45.922;6.716;2022-07-06T13:38:02;1.85;;;1.20;;
21386;SDS011;10854;45.922;6.716;2022-07-06T13:40:31;1.33;;;1.23;;
21386;SDS011;10854;45.922;6.716;2022-07-06T13:43:02;3.22;;;1.20;;
21386;SDS011;10854;45.922;6.716;2022-07-06T13:45:31;2.75;;;1.13;;
21386;SDS011;10854;45.922;6.716;2022-07-06T13:48:00;4.13;;;1.75;;
21386;SDS011;10854;45.922;6.716;2022-07-06T13:50:29;1.58;;;1.05;;
21386;SDS011;10854;45.922;6.716;2022-07-06T13:53:04;5.03;;;1.20;;
21386;SDS011;10854;45.922;6.716;2022-07-06T13:55:32;2.40;;;1.30;;
21386;SDS011;10854;45.922;6.716;2022-07-06T13:58:01;1.77;;;1.33;;
21386;SDS011;10854;45.922;6.716;2022-07-06T14:00:30;3.15;;;1.10;;
21386;SDS011;10854;45.922;6.716;2022-07-06T14:02:59;1.30;;;1.20;;
21386;SDS011;10854;45.922;6.716;2022-07-06T14:05:28;2.97;;;1.20;;
21386;SDS011;10854;45.922;6.716;2022-07-06T14:07:57;1.75;;;1.20;;
21386;SDS011;10854;45.922;6.716;2022-07-06T14:10:26;1.80;;;1.20;;
21386;SDS011;10854;45.922;6.716;2022-07-06T14:12:55;1.58;;;1.10;;
21386;SDS011;10854;45.922;6.716;2022-07-06T14:15:26;3.13;;;1.20;;
21386;SDS011;10854;45.922;6.716;2022-07-06T14:17:55;3.08;;;1.20;;
21386;SDS011;10854;45.922;6.716;2022-07-06T14:20:23;4.55;;;1.50;;
21386;SDS011;10854;45.922;6.716;2022-07-06T14:22:52;4.13;;;1.30;;
21386;SDS011;10854;45.922;6.716;2022-07-06T14:25:21;3.20;;;1.17;;
21386;SDS011;10854;45.922;6.716;2022-07-06T14:27:49;2.30;;;1.20;;
21386;SDS011;10854;45.922;6.716;2022-07-06T14:30:18;7.38;;;1.80;;
21386;SDS011;10854;45.922;6.716;2022-07-06T14:32:47;1.40;;;1.30;;
21386;SDS011;10854;45.922;6.716;2022-07-06T14:35:17;1.58;;;1.17;;
21386;SDS011;10854;45.922;6.716;2022-07-06T14:37:46;1.75;;;1.20;;
21386;SDS011;10854;45.922;6.716;2022-07-06T14:40:15;1.92;;;1.10;;
21386;SDS011;10854;45.922;6.716;2022-07-06T14:42:45;1.90;;;1.40;;
21386;SDS011;10854;45.922;6.716;2022-07-06T14:45:14;4.13;;;1.42;;
21386;SDS011;10854;45.922;6.716;2022-07-06T14:47:42;2.10;;;1.33;;
21386;SDS011;10854;45.922;6.716;2022-07-06T14:50:11;2.03;;;1.30;;
21386;SDS011;10854;45.922;6.716;2022-07-06T14:52:39;3.85;;;1.40;;
21386;SDS011;10854;45.922;6.716;2022-07-06T14:55:08;3.25;;;1.20;;
21386;SDS011;10854;45.922;6.716;2022-07-06T14:57:40;3.90;;;1.27;;
21386;SDS011;10854;45.922;6.716;2022-07-06T15:00:09;1.10;;;1.00;;
21386;SDS011;10854;45.922;6.716;2022-07-06T15:02:41;2.67;;;1.38;;
21386;SDS011;10854;45.922;6.716;2022-07-06T15:05:10;2.97;;;1.20;;
21386;SDS011;10854;45.922;6.716;2022-07-06T15:07:39;3.03;;;1.20;;
21386;SDS011;10854;45.922;6.716;2022-07-06T15:10:08;2.65;;;1.10;;
21386;SDS011;10854;45.922;6.716;2022-07-06T15:12:38;2.30;;;1.15;;
21386;SDS011;10854;45.922;6.716;2022-07-06T15:15:08;4.28;;;1.52;;
21386;SDS011;10854;45.922;6.716;2022-07-06T15:17:45;2.58;;;1.35;;